Time;durP1;ratioP1;P1;durP2;ratioP2;P2;SDS_P1;SDS_P2;PMS_P1;PMS_P2;Temp;Humidity;BMP_temperature;BMP_pressure;BME280_temperature;BME280_humidity;BME280_pressure;Samples;Min_cycle;Max_cycle;Signal;HPM_P1;HPM_P2
2023/06/20 00:01:13;;;;;;;14.05;9.00;;;25.10;55.10;;;;;;5031651;28;20033;-76
2023/06/20 00:03:38;;;;;;;13.77;8.45;;;25.00;55.10;;;;;;5031941;28;20543;-75
2023/06/20 00:06:04;;;;;;;13.45;7.93;;;25.00;55.30;;;;;;5032310;28;20432;-74
2023/06/20 00:08:30;;;;;;;12.00;7.72;;;24.90;55.40;;;;;;5031473;28;20391;-75
2023/06/20 00:10:55;;;;;;;11.35;7.60;;;24.90;55.40;;;;;;5032108;28;20037;-74
2023/06/20 00:13:21;;;;;;;11.77;7.60;;;24.90;55.40;;;;;;5031909;28;20496;-75
2023/06/20 00:15:47;;;;;;;12.05;7.57;;;24.90;55.40;;;;;;5031818;28;20030;-74
2023/06/20 00:18:12;;;;;;;13.20;7.43;;;25.00;55.40;;;;;;5031947;28;20083;-74
2023/06/20 00:20:38;;;;;;;11.38;7.75;;;25.00;55.50;;;;;;5031726;28;20087;-75
2023/06/20 00:23:04;;;;;;;11.40;7.88;;;25.00;55.80;;;;;;5031557;28;20037;-74
2023/06/20 00:25:29;;;;;;;12.48;7.63;;;25.00;56.10;;;;;;5031795;28;20036;-75
2023/06/20 00:27:55;;;;;;;11.25;7.80;;;25.00;56.30;;;;;;5014017;28;20038;-74
2023/06/20 00:30:21;;;;;;;12.02;7.57;;;25.00;56.50;;;;;;5032090;28;20116;-75
2023/06/20 00:32:46;;;;;;;14.70;7.70;;;24.90;56.70;;;;;;5031974;28;20091;-74
2023/06/20 00:35:12;;;;;;;12.48;7.78;;;24.90;56.90;;;;;;5031441;28;20126;-74
2023/06/20 00:37:38;;;;;;;14.63;7.63;;;24.80;57.10;;;;;;5031607;28;20021;-75
2023/06/20 00:40:08;;;;;;;10.80;7.40;;;24.90;57.20;;;;;;5031524;28;20061;-74
2023/06/20 00:42:34;;;;;;;10.55;7.55;;;24.90;57.40;;;;;;5031624;28;20030;-75
2023/06/20 00:45:00;;;;;;;10.75;7.10;;;24.80;57.40;;;;;;5031483;28;20041;-76
2023/06/20 00:47:27;;;;;;;12.48;6.78;;;24.70;57.30;;;;;;5031340;28;20093;-75
2023/06/20 00:49:53;;;;;;;10.90;7.00;;;24.80;57.70;;;;;;5031558;28;20045;-73
2023/06/20 00:52:23;;;;;;;11.52;6.10;;;24.70;58.30;;;;;;5031969;28;20034;-75
2023/06/20 00:54:49;;;;;;;11.05;6.53;;;24.60;58.10;;;;;;5031693;28;20033;-77
2023/06/20 00:57:17;;;;;;;9.93;6.57;;;24.60;58.30;;;;;;5031504;28;20399;-76
2023/06/20 00:59:47;;;;;;;10.98;6.45;;;24.50;58.30;;;;;;5031433;28;20613;-75
2023/06/20 01:02:14;;;;;;;11.73;5.88;;;24.40;59.10;;;;;;5031530;28;20037;-75
2023/06/20 01:04:41;;;;;;;9.73;6.07;;;24.40;58.40;;;;;;5031199;28;20029;-74
2023/06/20 01:07:28;;;;;;;11.75;6.70;;;24.40;58.40;;;;;;5031061;28;20041;-75
2023/06/20 01:10:10;;;;;;;9.27;6.47;;;24.30;58.70;;;;;;5031276;28;20479;-75
2023/06/20 01:12:49;;;;;;;10.13;6.28;;;24.30;58.50;;;;;;5032895;28;20041;-74
2023/06/20 01:15:33;;;;;;;12.00;6.18;;;24.10;58.70;;;;;;5034991;28;20029;-75
2023/06/20 01:18:14;;;;;;;12.40;6.95;;;24.10;58.60;;;;;;5035092;28;20033;-74
2023/06/20 01:20:46;;;;;;;9.90;6.03;;;24.00;58.70;;;;;;5034909;28;20040;-75
2023/06/20 01:23:32;;;;;;;9.60;6.57;;;24.00;58.70;;;;;;5034855;28;20025;-75
2023/06/20 01:26:04;;;;;;;9.93;6.43;;;24.00;59.00;;;;;;5034819;28;20134;-74
2023/06/20 01:28:44;;;;;;;8.57;6.03;;;24.00;58.90;;;;;;5034736;28;20076;-74
2023/06/20 01:31:19;;;;;;;10.27;5.60;;;24.00;58.90;;;;;;5034864;28;20395;-74
2023/06/20 01:33:51;;;;;;;10.35;6.18;;;24.00;58.80;;;;;;5016876;28;20448;-74
2023/06/20 01:36:20;;;;;;;8.80;5.80;;;24.00;59.60;;;;;;5034782;28;20041;-75
2023/06/20 01:38:49;;;;;;;9.93;6.05;;;23.90;59.10;;;;;;5034919;28;20057;-75
2023/06/20 01:41:23;;;;;;;9.25;5.40;;;23.90;59.20;;;;;;5034826;28;20034;-74
2023/06/20 01:43:50;;;;;;;10.40;6.32;;;23.90;59.50;;;;;;5034607;28;20029;-75
2023/06/20 01:46:19;;;;;;;11.18;6.38;;;23.90;59.60;;;;;;5035190;28;20033;-75
2023/06/20 01:48:47;;;;;;;10.05;6.28;;;23.80;59.60;;;;;;5034995;28;20029;-75
2023/06/20 01:51:14;;;;;;;9.73;6.07;;;23.90;59.90;;;;;;5034478;28;20037;-75
2023/06/20 01:53:42;;;;;;;11.95;6.30;;;23.80;60.00;;;;;;5034344;28;20040;-75
2023/06/20 01:56:10;;;;;;;11.73;5.95;;;23.80;60.00;;;;;;5034618;28;20053;-74
2023/06/20 01:58:37;;;;;;;9.63;6.15;;;23.80;59.80;;;;;;5035240;28;20509;-76
2023/06/20 02:01:04;;;;;;;9.05;6.03;;;23.80;60.00;;;;;;5036415;28;20041;-76
2023/06/20 02:03:31;;;;;;;10.35;6.07;;;23.80;60.00;;;;;;5035602;28;20483;-75
2023/06/20 02:05:59;;;;;;;8.45;6.22;;;23.70;60.10;;;;;;5016987;28;20423;-75
2023/06/20 02:08:26;;;;;;;7.78;5.97;;;23.80;60.30;;;;;;5034593;28;20051;-74
2023/06/20 02:10:53;;;;;;;10.50;5.82;;;23.80;60.10;;;;;;5034712;28;20065;-73
2023/06/20 02:13:23;;;;;;;12.38;6.25;;;23.70;60.30;;;;;;5034000;28;20025;-75
2023/06/20 02:15:52;;;;;;;10.30;6.25;;;23.60;60.30;;;;;;5033881;28;20080;-75
2023/06/20 02:18:21;;;;;;;10.13;6.53;;;23.60;60.40;;;;;;5034051;28;20053;-75
2023/06/20 02:20:53;;;;;;;8.30;6.18;;;23.60;60.50;;;;;;5033820;28;20064;-74
2023/06/20 02:23:29;;;;;;;9.60;6.72;;;23.50;60.80;;;;;;5033767;28;20033;-73
2023/06/20 02:26:00;;;;;;;11.75;6.30;;;23.50;61.00;;;;;;5032894;28;20037;-75
2023/06/20 02:28:28;;;;;;;10.38;6.55;;;23.50;60.90;;;;;;5033726;28;20507;-74
2023/06/20 02:30:55;;;;;;;9.05;6.28;;;23.60;60.90;;;;;;5033498;28;20033;-72
2023/06/20 02:33:24;;;;;;;10.38;6.20;;;23.60;60.90;;;;;;5033617;28;20033;-75
2023/06/20 02:35:51;;;;;;;11.45;6.22;;;23.50;61.10;;;;;;5033649;28;20041;-74
2023/06/20 02:38:17;;;;;;;10.23;6.25;;;23.50;61.20;;;;;;5033321;28;20143;-74
2023/06/20 02:40:43;;;;;;;11.00;6.47;;;23.50;61.40;;;;;;5033312;28;20038;-74
2023/06/20 02:43:08;;;;;;;8.18;5.90;;;23.50;61.40;;;;;;5033256;28;20060;-74
2023/06/20 02:45:36;;;;;;;9.52;6.57;;;23.50;61.50;;;;;;5032931;28;20025;-74
2023/06/20 02:48:07;;;;;;;9.57;6.45;;;23.50;61.50;;;;;;5033101;28;20045;-74
2023/06/20 02:50:41;;;;;;;12.68;6.60;;;23.50;61.60;;;;;;5033310;28;20034;-74
2023/06/20 02:53:26;;;;;;;9.68;6.35;;;23.40;61.50;;;;;;5033030;28;20109;-74
2023/06/20 02:56:01;;;;;;;8.10;6.07;;;23.50;61.50;;;;;;5032864;28;20064;-74
2023/06/20 02:58:29;;;;;;;11.27;6.25;;;23.40;61.60;;;;;;5032942;28;20041;-74
2023/06/20 03:00:58;;;;;;;7.82;6.22;;;23.40;61.80;;;;;;5032994;28;20038;-75
2023/06/20 03:03:35;;;;;;;9.23;6.10;;;23.20;62.10;;;;;;5032817;28;20368;-74
2023/06/20 03:06:02;;;;;;;9.55;6.72;;;23.10;62.70;;;;;;5032611;28;20049;-74
2023/06/20 03:08:29;;;;;;;10.55;6.45;;;23.20;62.50;;;;;;5015164;28;20033;-74
2023/06/20 03:10:57;;;;;;;12.25;6.30;;;23.20;62.60;;;;;;5032659;28;20043;-74
2023/06/20 03:13:23;;;;;;;9.77;6.15;;;23.20;62.80;;;;;;5032603;28;20502;-75
2023/06/20 03:15:51;;;;;;;9.85;6.72;;;23.10;62.70;;;;;;5032455;28;20037;-74
2023/06/20 03:18:18;;;;;;;8.55;6.30;;;23.20;62.60;;;;;;5032463;28;20104;-74
2023/06/20 03:20:45;;;;;;;11.98;6.90;;;23.10;62.90;;;;;;5032666;28;20111;-77
2023/06/20 03:23:11;;;;;;;8.80;6.30;;;23.10;62.80;;;;;;5032540;28;20387;-75
2023/06/20 03:25:37;;;;;;;9.68;6.03;;;23.00;63.00;;;;;;5014806;28;20438;-74
2023/06/20 03:28:03;;;;;;;10.80;6.60;;;23.10;62.80;;;;;;5033252;28;20041;-75
2023/06/20 03:30:28;;;;;;;8.80;5.93;;;23.10;62.70;;;;;;5032891;28;20108;-74
2023/06/20 03:32:54;;;;;;;9.95;7.07;;;23.10;62.70;;;;;;5032709;28;20483;-75
2023/06/20 03:35:19;;;;;;;8.13;6.15;;;23.20;62.70;;;;;;5031650;28;20029;-74
2023/06/20 03:37:45;;;;;;;13.15;6.80;;;23.20;62.70;;;;;;5031706;28;20037;-75
2023/06/20 03:40:11;;;;;;;11.45;7.25;;;23.20;62.70;;;;;;5032152;28;20041;-76
2023/06/20 03:42:37;;;;;;;10.77;6.70;;;23.10;62.60;;;;;;5032595;28;20053;-76
2023/06/20 03:45:03;;;;;;;8.65;6.95;;;23.10;63.00;;;;;;5031901;28;20127;-74
2023/06/20 03:47:29;;;;;;;14.15;7.28;;;23.10;63.10;;;;;;5032142;28;20140;-74
2023/06/20 03:49:54;;;;;;;10.00;7.15;;;23.10;63.20;;;;;;5032115;28;20029;-74
2023/06/20 03:52:20;;;;;;;9.90;7.22;;;23.10;63.00;;;;;;5031697;28;20064;-75
2023/06/20 03:54:46;;;;;;;8.80;6.35;;;23.10;63.00;;;;;;5031717;28;20388;-74
2023/06/20 03:57:11;;;;;;;11.32;6.78;;;23.10;63.30;;;;;;5032046;28;20038;-74
2023/06/20 03:59:37;;;;;;;9.68;6.88;;;23.10;63.00;;;;;;5031722;28;20037;-74
2023/06/20 04:02:04;;;;;;;14.07;7.70;;;23.20;63.00;;;;;;5031645;28;20030;-75
2023/06/20 04:04:29;;;;;;;10.73;7.20;;;23.20;62.90;;;;;;5032277;28;20041;-76
2023/06/20 04:06:55;;;;;;;8.55;6.45;;;23.30;62.80;;;;;;5013891;28;20063;-75
2023/06/20 04:09:26;;;;;;;10.70;7.13;;;23.20;62.70;;;;;;5031763;28;20174;-74
2023/06/20 04:11:53;;;;;;;11.10;6.85;;;23.10;63.00;;;;;;5031769;28;20495;-74
2023/06/20 04:14:19;;;;;;;9.85;6.75;;;23.20;63.20;;;;;;5031529;28;20057;-75
2023/06/20 04:16:47;;;;;;;10.73;7.10;;;23.10;63.00;;;;;;5031467;28;20033;-75
2023/06/20 04:19:14;;;;;;;9.45;6.47;;;23.10;63.10;;;;;;5031604;28;20066;-74
2023/06/20 04:21:40;;;;;;;8.38;6.22;;;23.10;63.10;;;;;;5013717;28;20033;-77
2023/06/20 04:24:06;;;;;;;11.25;6.78;;;23.00;63.00;;;;;;5031191;28;20339;-74
2023/06/20 04:26:31;;;;;;;8.38;6.53;;;23.00;63.10;;;;;;5031107;28;20113;-75
2023/06/20 04:28:57;;;;;;;12.40;6.70;;;22.90;63.10;;;;;;5031538;28;20368;-75
2023/06/20 04:31:24;;;;;;;11.18;7.00;;;22.90;63.40;;;;;;5031533;28;20384;-75
2023/06/20 04:33:50;;;;;;;9.82;6.78;;;23.00;63.30;;;;;;5031564;28;20376;-75
2023/06/20 04:36:15;;;;;;;13.07;7.00;;;23.00;63.30;;;;;;5031332;28;20112;-75
2023/06/20 04:38:42;;;;;;;12.13;8.20;;;23.00;63.40;;;;;;5031368;28;20104;-74
2023/06/20 04:41:08;;;;;;;12.20;7.55;;;23.10;63.30;;;;;;5031417;28;20030;-74
2023/06/20 04:43:35;;;;;;;13.27;6.70;;;23.20;63.10;;;;;;5031329;28;20025;-74
2023/06/20 04:46:01;;;;;;;10.68;7.18;;;23.20;63.30;;;;;;5031417;28;20065;-75
2023/06/20 04:48:35;;;;;;;11.60;6.80;;;23.30;63.40;;;;;;5034459;28;20029;-74
2023/06/20 04:51:01;;;;;;;10.05;6.40;;;23.30;63.00;;;;;;5035352;28;20032;-75
2023/06/20 04:53:27;;;;;;;13.35;6.82;;;23.30;62.60;;;;;;5035392;28;20083;-75
2023/06/20 04:55:53;;;;;;;10.65;6.65;;;23.40;62.60;;;;;;5035151;28;20450;-76
2023/06/20 04:58:19;;;;;;;13.15;6.68;;;23.40;62.40;;;;;;5035492;28;20033;-75
2023/06/20 05:00:44;;;;;;;10.45;6.85;;;23.50;62.40;;;;;;5035227;28;20398;-74
2023/06/20 05:03:10;;;;;;;12.80;7.50;;;23.60;62.20;;;;;;5035144;28;20037;-76
2023/06/20 05:05:36;;;;;;;13.40;7.38;;;23.70;62.00;;;;;;5034866;28;20037;-76
2023/06/20 05:08:02;;;;;;;11.23;7.15;;;23.80;62.10;;;;;;5034993;28;20052;-75
2023/06/20 05:10:28;;;;;;;12.98;7.68;;;23.80;62.00;;;;;;5035533;28;20029;-76
2023/06/20 05:12:53;;;;;;;11.68;7.07;;;24.00;61.90;;;;;;5034731;28;20352;-76
2023/06/20 05:15:23;;;;;;;12.68;7.40;;;24.10;61.60;;;;;;5034967;28;20053;-74
2023/06/20 05:17:52;;;;;;;15.07;7.63;;;24.20;61.50;;;;;;5034676;28;20041;-75
2023/06/20 05:20:19;;;;;;;12.35;7.15;;;24.40;61.30;;;;;;5034670;28;20137;-74
2023/06/20 05:22:44;;;;;;;12.50;6.57;;;24.70;60.60;;;;;;5034575;28;20045;-76
2023/06/20 05:25:10;;;;;;;12.32;6.82;;;24.90;59.90;;;;;;5034497;28;20402;-75
2023/06/20 05:27:36;;;;;;;11.52;6.88;;;25.20;59.60;;;;;;5034611;28;20077;-74
2023/06/20 05:30:03;;;;;;;13.32;6.30;;;25.50;59.10;;;;;;5034432;28;20121;-75
2023/06/20 05:32:28;;;;;;;11.60;6.47;;;25.70;58.70;;;;;;5034335;28;20029;-74
2023/06/20 05:34:54;;;;;;;13.70;7.07;;;25.90;57.60;;;;;;5034450;28;20041;-74
2023/06/20 05:37:20;;;;;;;10.48;6.60;;;26.10;57.10;;;;;;5034277;28;20038;-75
2023/06/20 05:39:45;;;;;;;10.70;6.45;;;26.40;56.70;;;;;;5034202;28;20033;-76
2023/06/20 05:42:11;;;;;;;10.93;7.38;;;26.50;56.70;;;;;;5015615;28;20087;-74
2023/06/20 05:44:37;;;;;;;12.82;7.00;;;26.70;56.00;;;;;;5034013;28;20040;-75
2023/06/20 05:47:06;;;;;;;12.10;6.97;;;26.90;55.70;;;;;;5033904;28;20049;-76
2023/06/20 05:49:32;;;;;;;12.15;7.05;;;26.90;56.00;;;;;;5034072;28;20064;-75
2023/06/20 05:51:58;;;;;;;10.70;6.53;;;27.10;55.50;;;;;;5033771;28;20033;-73
2023/06/20 05:54:24;;;;;;;16.45;7.03;;;27.40;55.00;;;;;;5033834;28;20180;-75
2023/06/20 05:56:50;;;;;;;11.73;5.95;;;27.50;54.30;;;;;;5023860;28;20046;-76
2023/06/20 05:59:16;;;;;;;10.82;6.20;;;27.60;53.70;;;;;;5013022;28;20041;-76
2023/06/20 06:01:42;;;;;;;12.65;6.45;;;27.80;53.80;;;;;;5013738;28;20034;-76
2023/06/20 06:04:07;;;;;;;9.95;6.10;;;28.00;53.70;;;;;;5013743;28;20038;-76
2023/06/20 06:06:33;;;;;;;13.48;6.55;;;28.10;53.50;;;;;;5014040;28;20042;-75
2023/06/20 06:08:59;;;;;;;13.45;6.10;;;28.30;52.90;;;;;;5023196;28;20036;-75
2023/06/20 06:11:25;;;;;;;9.80;6.05;;;28.40;52.40;;;;;;5019452;28;20105;-77
2023/06/20 06:13:51;;;;;;;11.75;6.40;;;28.30;52.40;;;;;;5022083;28;20067;-76
2023/06/20 06:16:17;;;;;;;8.32;6.07;;;28.50;52.10;;;;;;5014144;28;20034;-77
2023/06/20 06:18:43;;;;;;;11.05;6.00;;;28.50;52.30;;;;;;5019379;28;20030;-79
2023/06/20 06:21:09;;;;;;;12.68;6.40;;;28.70;51.80;;;;;;5021051;28;20037;-76
2023/06/20 06:23:35;;;;;;;11.90;6.15;;;28.90;51.50;;;;;;5002414;28;20038;-76
2023/06/20 06:26:02;;;;;;;11.32;6.75;;;28.90;50.90;;;;;;5018479;28;20087;-78
2023/06/20 06:28:28;;;;;;;9.25;6.28;;;28.90;50.90;;;;;;5013619;28;20100;-78
2023/06/20 06:31:00;;;;;;;12.00;6.07;;;28.90;50.40;;;;;;5013367;28;20057;-78
2023/06/20 06:33:28;;;;;;;13.00;6.50;;;28.80;50.50;;;;;;5013566;28;20038;-78
2023/06/20 06:35:55;;;;;;;21.63;7.20;;;29.00;50.50;;;;;;5013313;28;20049;-76
2023/06/20 06:38:22;;;;;;;17.13;6.85;;;29.10;50.40;;;;;;5013052;28;20045;-77
2023/06/20 06:40:47;;;;;;;11.88;6.03;;;29.30;50.30;;;;;;5013301;28;20088;-77
2023/06/20 06:43:14;;;;;;;12.88;6.13;;;29.60;49.80;;;;;;5013312;28;20507;-78
2023/06/20 06:45:40;;;;;;;13.45;6.57;;;29.80;49.70;;;;;;5012657;28;20376;-78
2023/06/20 06:48:06;;;;;;;19.73;6.20;;;29.90;49.50;;;;;;5012748;28;20041;-79
2023/06/20 06:50:32;;;;;;;14.15;6.30;;;29.80;49.50;;;;;;5013090;28;20030;-78
2023/06/20 06:52:58;;;;;;;13.38;6.10;;;30.10;49.50;;;;;;5013990;28;20033;-77
2023/06/20 06:55:23;;;;;;;15.27;7.15;;;30.00;49.20;;;;;;5012715;28;20467;-79
2023/06/20 06:57:49;;;;;;;16.10;7.07;;;30.00;49.60;;;;;;5012910;28;20044;-77
2023/06/20 07:00:15;;;;;;;12.90;6.45;;;30.00;49.20;;;;;;5013039;28;20104;-78
2023/06/20 07:02:43;;;;;;;11.98;5.55;;;30.20;48.50;;;;;;5017242;28;20029;-89
2023/06/20 07:05:08;;;;;;;13.88;6.85;;;30.20;48.80;;;;;;5017252;28;20038;-90
2023/06/20 07:07:34;;;;;;;16.05;6.47;;;30.30;48.70;;;;;;5015220;28;20058;-89
2023/06/20 07:10:00;;;;;;;13.98;6.10;;;30.40;48.50;;;;;;5015778;28;20072;-89
2023/06/20 07:12:26;;;;;;;16.88;6.45;;;30.40;48.20;;;;;;5016029;28;20447;-89
2023/06/20 07:14:56;;;;;;;21.67;5.93;;;30.30;48.00;;;;;;5015243;28;20030;-89
2023/06/20 07:17:22;;;;;;;8.30;5.38;;;30.30;48.10;;;;;;5015169;28;20037;-88
2023/06/20 07:19:48;;;;;;;12.27;5.85;;;30.30;48.00;;;;;;5017751;28;20030;-90
2023/06/20 07:22:14;;;;;;;17.15;6.53;;;30.40;47.90;;;;;;5015226;28;20045;-90
2023/06/20 07:24:39;;;;;;;15.00;6.05;;;30.60;47.80;;;;;;4997347;28;20108;-88
2023/06/20 07:27:05;;;;;;;15.00;5.88;;;30.70;47.60;;;;;;5015099;28;20046;-90
2023/06/20 07:29:31;;;;;;;12.88;6.13;;;30.80;47.20;;;;;;5018038;28;20026;-89
2023/06/20 07:31:57;;;;;;;11.35;5.97;;;30.80;47.30;;;;;;5030798;28;20045;-88
2023/06/20 07:34:22;;;;;;;13.00;6.60;;;30.80;47.50;;;;;;5031777;28;20107;-88
2023/06/20 07:36:48;;;;;;;19.27;7.15;;;30.80;47.40;;;;;;5019307;28;20405;-89
2023/06/20 07:39:14;;;;;;;22.05;6.82;;;30.90;47.40;;;;;;5017353;28;20061;-90
2023/06/20 07:41:39;;;;;;;18.48;6.75;;;30.90;47.30;;;;;;5015484;28;20037;-89
2023/06/20 07:44:07;;;;;;;16.75;6.55;;;30.90;47.20;;;;;;4997919;28;20403;-88
2023/06/20 07:46:33;;;;;;;11.43;6.25;;;30.90;47.10;;;;;;5014754;28;20414;-86
2023/06/20 07:48:58;;;;;;;16.25;6.60;;;30.90;47.00;;;;;;5015571;28;20113;-89
2023/06/20 07:51:24;;;;;;;11.82;5.85;;;31.00;46.80;;;;;;5022496;28;20539;-88
2023/06/20 07:53:50;;;;;;;15.23;7.32;;;31.00;46.80;;;;;;5000057;28;20072;-88
2023/06/20 07:56:15;;;;;;;10.80;6.28;;;31.00;46.60;;;;;;5015817;28;20064;-89
2023/06/20 07:58:41;;;;;;;12.93;6.60;;;31.00;46.30;;;;;;5024990;28;20392;-89
2023/06/20 08:01:07;;;;;;;10.73;5.53;;;31.00;46.10;;;;;;5017831;28;20093;-89
2023/06/20 08:03:33;;;;;;;15.07;5.85;;;31.00;45.50;;;;;;5018481;28;20062;-89
2023/06/20 08:05:59;;;;;;;13.98;6.50;;;31.00;45.30;;;;;;5019616;28;20594;-88
2023/06/20 08:08:25;;;;;;;13.75;6.40;;;31.00;45.10;;;;;;5017554;28;20048;-87
2023/06/20 08:10:50;;;;;;;8.07;5.18;;;31.00;45.20;;;;;;5014633;28;20030;-89
2023/06/20 08:13:16;;;;;;;10.95;5.10;;;31.00;44.70;;;;;;5015904;28;20033;-88
2023/06/20 08:15:42;;;;;;;7.20;4.60;;;30.90;44.00;;;;;;5020523;28;20041;-89
2023/06/20 08:18:07;;;;;;;7.97;5.60;;;31.00;43.30;;;;;;5014611;28;20045;-89
2023/06/20 08:20:33;;;;;;;10.68;5.07;;;31.00;43.40;;;;;;5015465;28;20128;-89
2023/06/20 08:22:59;;;;;;;9.35;5.05;;;31.00;42.90;;;;;;5015975;28;20033;-88
2023/06/20 08:25:24;;;;;;;8.48;4.75;;;30.90;42.60;;;;;;5015917;28;20120;-87
2023/06/20 08:27:50;;;;;;;8.48;5.00;;;30.80;42.80;;;;;;5017948;28;20045;-88
2023/06/20 08:30:16;;;;;;;12.57;5.32;;;30.80;42.70;;;;;;5016476;28;20030;-86
2023/06/20 08:32:42;;;;;;;10.45;5.78;;;30.70;42.60;;;;;;5015753;28;20034;-88
2023/06/20 08:35:09;;;;;;;11.93;5.40;;;30.70;43.00;;;;;;5018313;28;20026;-86
2023/06/20 08:37:37;;;;;;;11.07;5.07;;;30.70;42.60;;;;;;5013799;28;20478;-87
2023/06/20 08:40:08;;;;;;;15.10;4.93;;;30.70;43.10;;;;;;5017364;28;20049;-88
2023/06/20 08:42:35;;;;;;;13.52;5.25;;;30.70;42.00;;;;;;5017721;28;20030;-89
2023/06/20 08:45:01;;;;;;;10.27;5.40;;;30.70;42.40;;;;;;5016178;28;20119;-88
2023/06/20 08:47:26;;;;;;;13.90;5.22;;;30.60;42.60;;;;;;4999913;28;20136;-88
2023/06/20 08:49:55;;;;;;;12.15;5.47;;;30.70;43.00;;;;;;5000451;28;20068;-87
2023/06/20 08:52:28;;;;;;;13.45;5.30;;;30.60;43.40;;;;;;5023963;28;20045;-90
2023/06/20 08:54:54;;;;;;;8.50;4.75;;;30.60;43.50;;;;;;5018889;28;20369;-88
2023/06/20 08:57:21;;;;;;;9.75;5.32;;;30.60;43.60;;;;;;5024771;28;20034;-88
2023/06/20 08:59:46;;;;;;;9.68;5.35;;;30.50;43.50;;;;;;5015636;28;20062;-89
2023/06/20 09:02:12;;;;;;;12.35;5.60;;;30.50;43.50;;;;;;5014276;28;20063;-88
2023/06/20 09:04:38;;;;;;;10.25;4.60;;;30.50;43.60;;;;;;5017892;28;20101;-89
2023/06/20 09:07:17;;;;;;;8.77;4.60;;;30.50;42.70;;;;;;5015379;28;20077;-88
2023/06/20 09:09:44;;;;;;;9.27;4.38;;;30.50;42.60;;;;;;5016066;28;20037;-87
2023/06/20 09:12:09;;;;;;;8.95;4.50;;;30.50;42.50;;;;;;4996384;28;20124;-88
2023/06/20 09:14:35;;;;;;;5.85;3.90;;;30.50;42.00;;;;;;4997006;28;20491;-89
2023/06/20 09:17:01;;;;;;;5.93;3.88;;;30.50;42.00;;;;;;5012712;28;20045;-87
2023/06/20 09:19:27;;;;;;;8.93;4.55;;;30.50;41.80;;;;;;5013361;28;20038;-88
2023/06/20 09:22:03;;;;;;;10.13;5.18;;;30.50;42.00;;;;;;5013112;28;20141;-90
2023/06/20 09:24:28;;;;;;;8.90;4.45;;;30.50;42.20;;;;;;5012715;28;20038;-86
2023/06/20 09:26:54;;;;;;;8.80;4.70;;;30.60;42.20;;;;;;5013198;28;20492;-86
2023/06/20 09:29:20;;;;;;;8.75;4.00;;;30.60;42.20;;;;;;5012722;28;20049;-88
2023/06/20 09:31:49;;;;;;;8.85;5.05;;;30.50;41.60;;;;;;5012481;28;20117;-87
2023/06/20 09:34:19;;;;;;;10.68;4.47;;;30.60;42.00;;;;;;5013310;28;20109;-89
2023/06/20 09:36:46;;;;;;;9.55;4.38;;;30.50;41.00;;;;;;5005560;28;20513;-88
2023/06/20 09:39:20;;;;;;;7.90;4.35;;;30.50;42.20;;;;;;5020508;28;20384;-87
2023/06/20 09:41:47;;;;;;;8.32;4.35;;;30.50;42.00;;;;;;5015303;28;20491;-89
2023/06/20 09:44:14;;;;;;;8.35;4.78;;;30.50;41.80;;;;;;5015775;28;20491;-88
2023/06/20 09:46:40;;;;;;;6.13;4.20;;;30.60;41.80;;;;;;5015923;28;20523;-88
2023/06/20 09:49:06;;;;;;;7.15;4.50;;;30.50;41.70;;;;;;4997716;28;20110;-88
2023/06/20 09:51:46;;;;;;;7.35;4.10;;;30.50;41.80;;;;;;5017325;28;20041;-87
2023/06/20 09:54:13;;;;;;;7.30;4.40;;;30.50;40.70;;;;;;5016391;28;20472;-88
2023/06/20 09:56:47;;;;;;;8.07;4.25;;;30.50;41.20;;;;;;5014742;28;20522;-88
2023/06/20 09:59:15;;;;;;;8.25;3.83;;;30.50;41.50;;;;;;4997938;28;20451;-79
2023/06/20 10:01:42;;;;;;;7.85;4.30;;;30.60;41.60;;;;;;5016504;28;20045;-88
2023/06/20 10:04:09;;;;;;;7.97;4.47;;;30.70;42.30;;;;;;5016645;28;20029;-88
2023/06/20 10:06:38;;;;;;;7.05;4.25;;;30.70;41.90;;;;;;5015659;28;20041;-85
2023/06/20 10:09:07;;;;;;;7.53;4.38;;;30.80;41.60;;;;;;5015284;28;20040;-86
2023/06/20 10:11:38;;;;;;;7.15;4.53;;;30.80;41.90;;;;;;5016653;28;20050;-86
2023/06/20 10:14:04;;;;;;;7.78;4.57;;;30.80;41.70;;;;;;5026644;28;20057;-86
2023/06/20 10:16:31;;;;;;;8.60;4.60;;;30.90;41.30;;;;;;5016849;28;20073;-87
2023/06/20 10:18:56;;;;;;;8.57;4.45;;;30.90;41.20;;;;;;5018104;28;20034;-86
2023/06/20 10:21:57;;;;;;;14.98;4.80;;;30.90;41.00;;;;;;5016915;28;20044;-87
2023/06/20 10:24:28;;;;;;;10.57;4.57;;;30.90;40.40;;;;;;5014987;28;20057;-87
2023/06/20 10:26:55;;;;;;;10.68;5.00;;;30.90;41.50;;;;;;5015324;28;20049;-87
2023/06/20 10:29:21;;;;;;;12.10;4.90;;;31.00;41.80;;;;;;5016150;28;20042;-87
2023/06/20 10:32:07;;;;;;;8.60;4.72;;;31.00;41.20;;;;;;5019403;28;20057;-87
2023/06/20 10:34:38;;;;;;;8.35;4.50;;;31.00;41.20;;;;;;5015906;28;20108;-87
2023/06/20 10:37:19;;;;;;;8.25;4.55;;;31.00;41.60;;;;;;5014319;28;20117;-87
2023/06/20 10:39:55;;;;;;;11.60;4.95;;;31.10;40.90;;;;;;5014430;28;20462;-86
2023/06/20 10:42:37;;;;;;;8.50;4.13;;;31.20;41.20;;;;;;5015792;28;20042;-86
2023/06/20 10:45:25;;;;;;;7.65;4.53;;;31.20;40.60;;;;;;5013510;28;20400;-88
2023/06/20 10:47:52;;;;;;;12.68;4.57;;;31.20;40.50;;;;;;5014360;28;20511;-87
2023/06/20 10:50:19;;;;;;;9.90;4.70;;;31.20;40.80;;;;;;5013664;28;20103;-87
2023/06/20 10:52:45;;;;;;;11.45;4.50;;;31.30;40.80;;;;;;4996516;28;20041;-86
2023/06/20 10:55:23;;;;;;;9.40;4.57;;;31.30;40.40;;;;;;5013896;28;20038;-87
2023/06/20 10:57:53;;;;;;;12.50;4.75;;;31.30;40.60;;;;;;5022647;28;20066;-86
2023/06/20 11:00:21;;;;;;;9.07;4.75;;;31.40;40.50;;;;;;5017612;28;20395;-86
2023/06/20 11:02:52;;;;;;;9.07;4.63;;;31.40;40.00;;;;;;5000967;28;20136;-85
2023/06/20 11:05:22;;;;;;;7.38;4.72;;;31.40;39.00;;;;;;5016817;28;20080;-87
2023/06/20 11:07:52;;;;;;;8.60;4.00;;;31.50;38.40;;;;;;5016763;28;20389;-86
2023/06/20 11:10:26;;;;;;;7.53;4.10;;;31.50;37.90;;;;;;5016891;28;20033;-87
2023/06/20 11:12:52;;;;;;;8.88;4.45;;;31.60;38.00;;;;;;5016665;28;20106;-85
2023/06/20 11:15:24;;;;;;;7.22;4.13;;;31.60;38.20;;;;;;5016460;28;20052;-87
2023/06/20 11:17:51;;;;;;;9.00;4.90;;;31.60;38.30;;;;;;5021306;28;20060;-87
2023/06/20 11:20:17;;;;;;;7.45;4.63;;;31.70;38.50;;;;;;5017459;28;20038;-88
2023/06/20 11:22:46;;;;;;;7.97;4.72;;;31.70;38.70;;;;;;5016047;28;20029;-87
2023/06/20 11:25:12;;;;;;;8.07;4.43;;;31.70;38.50;;;;;;5016796;28;20068;-86
2023/06/20 11:27:40;;;;;;;7.15;4.75;;;31.80;38.70;;;;;;5015319;28;20132;-86
2023/06/20 11:30:06;;;;;;;11.13;4.75;;;31.80;38.50;;;;;;5015415;28;20088;-88
2023/06/20 11:32:32;;;;;;;9.60;4.68;;;31.80;38.50;;;;;;5019288;28;20306;-86
2023/06/20 11:35:03;;;;;;;8.00;4.55;;;31.90;37.70;;;;;;5026105;28;20076;-86
2023/06/20 11:37:29;;;;;;;7.53;4.50;;;31.90;38.10;;;;;;5015642;28;20145;-87
2023/06/20 11:39:55;;;;;;;7.82;3.88;;;32.00;37.30;;;;;;5015482;28;20085;-87
2023/06/20 11:42:21;;;;;;;7.70;4.38;;;32.10;36.90;;;;;;5015780;28;20034;-86
2023/06/20 11:44:47;;;;;;;8.57;4.93;;;32.10;36.40;;;;;;5016845;28;20057;-86
2023/06/20 11:47:13;;;;;;;7.45;4.85;;;32.10;36.60;;;;;;5015934;28;20069;-87
2023/06/20 11:49:40;;;;;;;6.50;4.22;;;32.20;36.60;;;;;;5018958;28;20399;-86
2023/06/20 11:52:07;;;;;;;8.23;5.43;;;32.30;36.50;;;;;;5017802;28;20042;-87
2023/06/20 11:54:51;;;;;;;6.55;4.18;;;32.30;36.60;;;;;;5015100;28;20030;-88
2023/06/20 11:57:28;;;;;;;9.73;4.78;;;32.40;36.60;;;;;;5014507;28;20562;-85
2023/06/20 11:59:59;;;;;;;7.65;4.82;;;32.40;36.50;;;;;;5015232;28;20116;-87
2023/06/20 12:02:28;;;;;;;9.32;4.88;;;32.50;36.70;;;;;;5015573;28;20081;-87
2023/06/20 12:04:58;;;;;;;8.93;4.90;;;32.50;37.00;;;;;;5015049;28;20033;-86
2023/06/20 12:07:27;;;;;;;7.40;4.72;;;32.50;37.30;;;;;;5015539;28;20108;-86
2023/06/20 12:09:52;;;;;;;15.25;5.45;;;32.60;37.60;;;;;;4997353;28;20042;-86
2023/06/20 12:12:18;;;;;;;9.95;4.88;;;32.70;37.70;;;;;;5016503;28;20041;-87
2023/06/20 12:14:51;;;;;;;10.20;4.93;;;32.70;37.70;;;;;;5017820;28;20033;-88
2023/06/20 12:17:17;;;;;;;6.90;4.57;;;32.80;37.30;;;;;;5018959;28;20044;-87
2023/06/20 12:19:53;;;;;;;7.72;4.43;;;32.80;37.20;;;;;;5017894;28;20026;-86
2023/06/20 12:22:19;;;;;;;9.52;4.80;;;32.90;37.20;;;;;;5016224;28;20044;-85
2023/06/20 12:24:45;;;;;;;9.57;4.57;;;32.90;37.10;;;;;;5015142;28;20029;-88
2023/06/20 12:27:11;;;;;;;11.75;4.63;;;32.90;37.20;;;;;;5015766;28;20073;-87
2023/06/20 12:29:37;;;;;;;6.80;4.18;;;32.90;37.20;;;;;;5016303;28;20430;-87
2023/06/20 12:32:04;;;;;;;7.93;4.47;;;33.00;37.50;;;;;;5019612;28;20388;-87
2023/06/20 12:34:30;;;;;;;7.93;4.35;;;33.00;37.20;;;;;;5016571;28;20055;-86
2023/06/20 12:36:56;;;;;;;8.40;4.68;;;33.00;37.10;;;;;;5014686;28;20044;-87
2023/06/20 13:54:45;;;;;;;7.90;4.10;;;33.50;33.40;;;;;;4993637;28;20113;-86
2023/06/20 13:57:11;;;;;;;9.52;3.75;;;33.40;33.00;;;;;;4994944;28;20081;-87
2023/06/20 13:59:36;;;;;;;9.93;4.00;;;33.40;33.50;;;;;;4995706;28;20482;-85